Time;durP1;ratioP1;P1;durP2;ratioP2;P2;SDS_P1;SDS_P2;PMS_P1;PMS_P2;Temp;Humidity;BMP_temperature;BMP_pressure;BME280_temperature;BME280_humidity;BME280_pressure;Samples;Min_cycle;Max_cycle;Signal;HPM_P1;HPM_P2
2022/06/08 00:01:03;;;;;;;7.60;3.50;;;;;;;;;;5074685;28;20482;-78
2022/06/08 00:03:34;;;;;;;4.07;3.77;;;;;;;;;;5072871;28;20447;-77
2022/06/08 00:06:00;;;;;;;4.53;3.53;;;;;;;;;;5074505;28;20431;-79
2022/06/08 00:08:26;;;;;;;9.77;4.70;;;;;;;;;;5074357;28;20408;-78
2022/06/08 00:10:52;;;;;;;5.63;2.97;;;;;;;;;;5074232;28;20412;-77
2022/06/08 00:13:18;;;;;;;4.97;4.47;;;;;;;;;;5073951;28;20411;-77
2022/06/08 00:15:44;;;;;;;4.50;3.77;;;;;;;;;;5074487;28;20406;-76
2022/06/08 00:18:11;;;;;;;7.20;3.83;;;;;;;;;;5074636;28;20946;-78
2022/06/08 00:20:37;;;;;;;4.97;3.87;;;;;;;;;;5074321;28;20415;-78
2022/06/08 00:23:03;;;;;;;6.97;4.00;;;;;;;;;;5073969;28;20382;-79
2022/06/08 00:25:30;;;;;;;5.50;3.87;;;;;;;;;;5072017;28;20457;-78
2022/06/08 00:27:56;;;;;;;6.13;3.90;;;;;;;;;;5074069;28;20430;-76
2022/06/08 00:30:22;;;;;;;5.40;3.90;;;;;;;;;;5073950;28;20453;-76
2022/06/08 00:32:48;;;;;;;6.30;4.40;;;;;;;;;;5074068;28;20511;-76
2022/06/08 00:35:14;;;;;;;6.63;4.73;;;;;;;;;;5073594;28;20447;-78
2022/06/08 00:37:40;;;;;;;7.67;4.37;;;;;;;;;;5056089;28;20536;-78
2022/06/08 00:40:07;;;;;;;4.50;3.83;;;;;;;;;;5073889;28;20513;-76
2022/06/08 00:42:33;;;;;;;6.40;4.20;;;;;;;;;;5073590;28;20503;-78
2022/06/08 00:45:05;;;;;;;4.80;3.90;;;;;;;;;;5073154;28;20827;-76
2022/06/08 00:47:35;;;;;;;5.07;4.57;;;;;;;;;;5073656;28;20469;-78
2022/06/08 00:50:04;;;;;;;5.50;3.93;;;;;;;;;;5073669;28;20436;-76
2022/06/08 00:52:34;;;;;;;5.73;4.73;;;;;;;;;;5073625;28;20403;-78
2022/06/08 00:55:02;;;;;;;7.10;4.17;;;;;;;;;;5073086;28;20428;-78
2022/06/08 00:57:36;;;;;;;5.40;4.27;;;;;;;;;;5073270;28;20778;-76
2022/06/08 01:00:05;;;;;;;11.87;4.10;;;;;;;;;;5073354;28;20408;-76
2022/06/08 01:02:32;;;;;;;8.60;4.40;;;;;;;;;;5073295;28;20403;-78
2022/06/08 01:05:17;;;;;;;6.53;4.50;;;;;;;;;;5072763;28;20471;-77
2022/06/08 01:07:43;;;;;;;4.37;3.97;;;;;;;;;;5072901;28;20399;-77
2022/06/08 01:10:14;;;;;;;4.67;4.00;;;;;;;;;;5073020;28;20407;-78
2022/06/08 01:12:41;;;;;;;5.13;4.53;;;;;;;;;;5071592;28;20936;-78
2022/06/08 01:15:07;;;;;;;7.23;4.20;;;;;;;;;;5071384;28;20506;-76
2022/06/08 01:17:33;;;;;;;6.10;3.73;;;;;;;;;;5073051;28;20437;-76
2022/06/08 01:19:59;;;;;;;5.33;4.07;;;;;;;;;;5073102;28;20481;-78
2022/06/08 01:22:25;;;;;;;5.97;3.30;;;;;;;;;;5072984;28;20423;-76
2022/06/08 01:24:52;;;;;;;6.03;4.10;;;;;;;;;;5072693;28;20442;-76
2022/06/08 01:27:38;;;;;;;4.60;3.47;;;;;;;;;;5072842;28;20386;-76
2022/06/08 01:30:04;;;;;;;4.80;3.23;;;;;;;;;;5072907;28;20452;-76
2022/06/08 01:32:35;;;;;;;7.60;4.10;;;;;;;;;;5072874;28;20867;-77
2022/06/08 01:35:20;;;;;;;6.23;3.63;;;;;;;;;;5072361;28;20801;-78
2022/06/08 01:38:05;;;;;;;6.60;3.63;;;;;;;;;;5072078;28;20378;-77
2022/06/08 01:40:31;;;;;;;4.60;3.90;;;;;;;;;;5072748;28;20465;-76
2022/06/08 01:43:03;;;;;;;7.87;4.27;;;;;;;;;;5072458;28;20509;-76
2022/06/08 01:45:49;;;;;;;4.93;3.53;;;;;;;;;;5072382;28;20922;-79
2022/06/08 01:48:41;;;;;;;4.73;3.40;;;;;;;;;;5072942;28;20391;-77
2022/06/08 01:51:32;;;;;;;9.60;4.37;;;;;;;;;;5056622;28;20496;-76
2022/06/08 01:54:12;;;;;;;7.50;3.63;;;;;;;;;;5072260;28;20813;-76
2022/06/08 01:56:37;;;;;;;6.57;3.90;;;;;;;;;;5072679;28;20418;-76
2022/06/08 01:59:16;;;;;;;6.07;3.60;;;;;;;;;;5072610;28;20413;-76
2022/06/08 02:01:45;;;;;;;5.07;3.60;;;;;;;;;;5071174;28;20441;-76
2022/06/08 02:04:27;;;;;;;3.97;3.00;;;;;;;;;;5072005;28;20561;-78
2022/06/08 02:06:59;;;;;;;8.60;3.20;;;;;;;;;;5072622;28;20410;-76
2022/06/08 02:09:31;;;;;;;5.73;2.73;;;;;;;;;;5072529;28;20407;-77
2022/06/08 02:12:01;;;;;;;8.53;4.00;;;;;;;;;;5072340;28;20902;-78
2022/06/08 02:14:56;;;;;;;5.73;4.20;;;;;;;;;;5072090;28;20485;-76
2022/06/08 02:17:22;;;;;;;12.40;4.07;;;;;;;;;;5063307;28;20416;-77
2022/06/08 02:19:51;;;;;;;4.77;3.40;;;;;;;;;;5072780;28;20411;-78
2022/06/08 02:22:30;;;;;;;5.13;3.70;;;;;;;;;;5072351;28;20415;-76
2022/06/08 02:25:07;;;;;;;12.03;3.93;;;;;;;;;;5071840;28;20459;-76
2022/06/08 02:27:53;;;;;;;7.33;4.10;;;;;;;;;;5072642;28;20418;-76
2022/06/08 02:30:21;;;;;;;8.40;4.30;;;;;;;;;;5072210;28;20411;-75
2022/06/08 02:35:36;;;;;;;9.30;4.40;;;;;;;;;;5072577;28;20541;-77
2022/06/08 02:38:05;;;;;;;9.30;3.97;;;;;;;;;;5072409;28;20487;-77
2022/06/08 02:40:33;;;;;;;15.50;5.17;;;;;;;;;;5070917;28;20412;-76
2022/06/08 02:43:02;;;;;;;6.50;4.50;;;;;;;;;;5071949;28;20411;-79
2022/06/08 02:45:30;;;;;;;11.27;4.50;;;;;;;;;;5070694;28;20471;-78
2022/06/08 02:48:00;;;;;;;8.67;4.53;;;;;;;;;;5071157;28;20476;-77
2022/06/08 02:50:27;;;;;;;8.93;4.63;;;;;;;;;;5075981;28;20486;-77
2022/06/08 02:53:05;;;;;;;9.83;4.53;;;;;;;;;;5075839;28;20390;-77
2022/06/08 02:55:35;;;;;;;6.20;4.90;;;;;;;;;;5075887;28;20431;-77
2022/06/08 02:58:12;;;;;;;7.67;4.27;;;;;;;;;;5075862;28;20475;-77
2022/06/08 03:00:45;;;;;;;6.70;4.07;;;;;;;;;;5075739;28;20403;-77
2022/06/08 03:03:13;;;;;;;9.23;4.50;;;;;;;;;;5075492;28;20411;-76
2022/06/08 03:05:41;;;;;;;5.00;3.37;;;;;;;;;;5075455;28;20486;-78
2022/06/08 03:08:28;;;;;;;6.77;4.10;;;;;;;;;;5075458;28;20416;-77
2022/06/08 03:10:54;;;;;;;6.10;3.67;;;;;;;;;;5075318;28;20412;-78
2022/06/08 03:13:29;;;;;;;3.60;3.30;;;;;;;;;;5075051;28;20502;-76
2022/06/08 03:15:59;;;;;;;5.30;3.33;;;;;;;;;;5075331;28;20435;-78
2022/06/08 03:18:26;;;;;;;9.33;4.20;;;;;;;;;;5075203;28;20420;-77
2022/06/08 03:20:52;;;;;;;4.60;4.10;;;;;;;;;;5075219;28;20407;-77
2022/06/08 03:23:19;;;;;;;5.87;3.40;;;;;;;;;;5073578;28;20507;-78
2022/06/08 03:25:46;;;;;;;7.93;3.33;;;;;;;;;;5075099;28;20494;-76
2022/06/08 03:28:14;;;;;;;8.23;3.80;;;;;;;;;;5073916;28;20502;-78
2022/06/08 03:30:40;;;;;;;9.97;4.27;;;;;;;;;;5074893;28;20427;-77
2022/06/08 03:33:06;;;;;;;4.20;3.53;;;;;;;;;;5073626;28;20527;-76
2022/06/08 03:35:32;;;;;;;6.93;4.13;;;;;;;;;;5075062;28;20431;-78
2022/06/08 03:37:59;;;;;;;7.40;3.50;;;;;;;;;;5075117;28;20386;-76
2022/06/08 03:40:27;;;;;;;4.03;3.63;;;;;;;;;;5075259;28;20768;-77
2022/06/08 03:42:53;;;;;;;4.07;3.60;;;;;;;;;;5073489;28;20430;-76
2022/06/08 03:45:19;;;;;;;5.13;3.57;;;;;;;;;;5074835;28;20463;-78
2022/06/08 03:47:48;;;;;;;7.27;3.67;;;;;;;;;;5075128;28;20439;-78
2022/06/08 03:50:17;;;;;;;4.60;3.83;;;;;;;;;;5073687;28;20783;-77
2022/06/08 03:52:45;;;;;;;4.10;3.70;;;;;;;;;;5074857;28;20411;-76
2022/06/08 03:55:13;;;;;;;5.77;3.33;;;;;;;;;;5074235;28;20432;-78
2022/06/08 03:57:41;;;;;;;4.53;3.80;;;;;;;;;;5074644;28;20411;-77
2022/06/08 04:00:07;;;;;;;7.93;3.60;;;;;;;;;;5073781;28;20408;-77
2022/06/08 04:02:33;;;;;;;4.10;3.80;;;;;;;;;;5073208;28;20419;-77
2022/06/08 04:04:59;;;;;;;4.93;3.27;;;;;;;;;;5073967;28;20501;-79
2022/06/08 04:07:25;;;;;;;4.60;3.03;;;;;;;;;;5074451;28;20915;-78
2022/06/08 04:09:51;;;;;;;7.27;4.00;;;;;;;;;;5074310;28;20456;-79
2022/06/08 04:12:22;;;;;;;6.13;3.67;;;;;;;;;;5074360;28;20419;-77
2022/06/08 04:14:48;;;;;;;3.37;3.07;;;;;;;;;;5072554;28;20436;-78
2022/06/08 04:17:14;;;;;;;5.50;3.30;;;;;;;;;;5072954;28;20992;-76
2022/06/08 04:19:40;;;;;;;6.67;3.20;;;;;;;;;;5074201;28;20415;-79
2022/06/08 04:22:06;;;;;;;6.33;3.20;;;;;;;;;;5074254;28;20447;-78
2022/06/08 04:24:32;;;;;;;5.63;3.17;;;;;;;;;;5073735;28;20467;-77
2022/06/08 04:26:58;;;;;;;7.77;4.20;;;;;;;;;;5072799;28;20419;-79
2022/06/08 04:29:24;;;;;;;2.97;2.57;;;;;;;;;;5074134;28;20718;-80
2022/06/08 04:31:50;;;;;;;8.73;3.80;;;;;;;;;;5073948;28;20507;-78
2022/06/08 04:34:16;;;;;;;6.10;3.10;;;;;;;;;;5073807;28;20435;-79
2022/06/08 04:36:43;;;;;;;4.10;3.00;;;;;;;;;;5072775;28;20427;-78
2022/06/08 04:39:10;;;;;;;3.23;2.87;;;;;;;;;;5073957;28;20780;-76
2022/06/08 04:41:37;;;;;;;9.60;3.80;;;;;;;;;;5074022;28;20900;-79
2022/06/08 04:44:03;;;;;;;4.77;3.20;;;;;;;;;;5073461;28;20935;-78
2022/06/08 04:46:29;;;;;;;6.10;3.57;;;;;;;;;;5073803;28;20438;-79
2022/06/08 04:48:55;;;;;;;7.30;3.57;;;;;;;;;;5073843;28;20438;-77
2022/06/08 04:51:22;;;;;;;4.77;3.40;;;;;;;;;;5073553;28;20482;-77
2022/06/08 04:53:48;;;;;;;3.40;2.67;;;;;;;;;;5073275;28;20882;-78
2022/06/08 04:56:15;;;;;;;4.00;3.10;;;;;;;;;;5073588;28;20900;-76
2022/06/08 04:58:41;;;;;;;6.00;3.00;;;;;;;;;;5073470;28;20418;-78
2022/06/08 05:01:07;;;;;;;6.73;3.33;;;;;;;;;;5073457;28;20404;-77
2022/06/08 05:03:33;;;;;;;8.10;3.50;;;;;;;;;;5072976;28;20418;-78
2022/06/08 05:06:00;;;;;;;4.37;2.80;;;;;;;;;;5073317;28;20428;-77
2022/06/08 05:08:26;;;;;;;3.37;2.93;;;;;;;;;;5073470;28;20385;-79
2022/06/08 05:10:53;;;;;;;5.33;3.20;;;;;;;;;;5073334;28;20408;-76
2022/06/08 05:13:20;;;;;;;2.83;2.30;;;;;;;;;;5072716;28;20411;-78
2022/06/08 05:15:46;;;;;;;3.13;2.83;;;;;;;;;;5071808;28;20447;-78
2022/06/08 05:18:13;;;;;;;4.60;2.87;;;;;;;;;;5073224;28;20502;-79
2022/06/08 05:20:40;;;;;;;5.77;2.50;;;;;;;;;;5073201;28;20771;-78
2022/06/08 05:23:08;;;;;;;4.20;2.83;;;;;;;;;;5072847;28;20416;-77
2022/06/08 05:25:36;;;;;;;6.13;3.00;;;;;;;;;;5072723;28;20541;-76
2022/06/08 05:28:02;;;;;;;2.63;2.40;;;;;;;;;;5073158;28;20434;-77
2022/06/08 05:30:28;;;;;;;2.87;2.67;;;;;;;;;;5072948;28;20444;-79
2022/06/08 05:32:54;;;;;;;3.37;2.60;;;;;;;;;;5072678;28;20394;-80
2022/06/08 05:35:21;;;;;;;3.37;3.03;;;;;;;;;;5072840;28;20431;-77
2022/06/08 05:37:47;;;;;;;3.67;2.47;;;;;;;;;;5072785;28;20415;-78
2022/06/08 05:40:13;;;;;;;3.83;2.40;;;;;;;;;;5071791;28;20424;-78
2022/06/08 05:42:40;;;;;;;3.60;2.70;;;;;;;;;;5072792;28;20411;-77
2022/06/08 05:45:07;;;;;;;2.33;2.13;;;;;;;;;;5072264;28;20463;-76
2022/06/08 05:47:34;;;;;;;2.33;2.13;;;;;;;;;;5072842;28;20386;-77
2022/06/08 05:50:00;;;;;;;2.37;2.17;;;;;;;;;;5073139;28;20425;-78
2022/06/08 05:52:26;;;;;;;4.90;2.70;;;;;;;;;;5073034;28;20435;-77
2022/06/08 05:54:52;;;;;;;5.30;2.50;;;;;;;;;;5072364;28;20987;-78
2022/06/08 05:57:18;;;;;;;5.17;1.77;;;;;;;;;;5072837;28;20465;-77
2022/06/08 05:59:44;;;;;;;2.50;1.70;;;;;;;;;;5072408;28;20416;-79
2022/06/08 06:02:14;;;;;;;5.13;2.37;;;;;;;;;;5072951;28;20780;-76
2022/06/08 06:04:41;;;;;;;3.47;1.97;;;;;;;;;;5070931;28;20554;-77
2022/06/08 06:07:07;;;;;;;7.60;2.80;;;;;;;;;;5072681;28;20403;-77
2022/06/08 06:09:33;;;;;;;6.50;2.20;;;;;;;;;;5071417;28;20378;-77
2022/06/08 06:11:59;;;;;;;2.40;2.20;;;;;;;;;;5072512;28;20374;-78
2022/06/08 06:14:25;;;;;;;2.57;2.37;;;;;;;;;;5071990;28;20476;-76
2022/06/08 06:16:51;;;;;;;4.43;2.60;;;;;;;;;;5072473;28;20487;-76
2022/06/08 06:19:17;;;;;;;2.93;2.73;;;;;;;;;;5072456;28;20412;-77
2022/06/08 06:21:43;;;;;;;3.77;2.87;;;;;;;;;;5072421;28;20910;-77
2022/06/08 06:24:09;;;;;;;3.13;2.83;;;;;;;;;;5074079;28;20433;-77
2022/06/08 06:26:35;;;;;;;5.20;2.80;;;;;;;;;;5076446;28;20382;-77
2022/06/08 06:29:01;;;;;;;3.93;2.37;;;;;;;;;;5076675;28;20482;-78
2022/06/08 06:31:36;;;;;;;3.83;1.87;;;;;;;;;;5074914;28;20550;-79
2022/06/08 06:34:02;;;;;;;4.30;1.97;;;;;;;;;;5075884;28;20811;-76
2022/06/08 06:36:28;;;;;;;3.23;2.40;;;;;;;;;;5076239;28;20461;-77
2022/06/08 06:38:54;;;;;;;9.17;2.30;;;;;;;;;;5076287;28;20430;-78
2022/06/08 06:41:21;;;;;;;2.97;2.03;;;;;;;;;;5075373;28;20415;-76
2022/06/08 06:43:47;;;;;;;4.60;2.20;;;;;;;;;;5074418;28;20491;-78
2022/06/08 06:46:14;;;;;;;2.43;2.10;;;;;;;;;;5074765;28;20505;-76
2022/06/08 06:48:40;;;;;;;2.80;1.90;;;;;;;;;;5076195;28;20780;-76
2022/06/08 06:51:06;;;;;;;4.30;1.80;;;;;;;;;;5076196;28;20390;-77
2022/06/08 06:53:32;;;;;;;3.40;1.43;;;;;;;;;;5075750;28;20407;-77
2022/06/08 06:55:59;;;;;;;6.83;1.90;;;;;;;;;;5075956;28;20935;-77
2022/06/08 06:58:25;;;;;;;4.40;2.30;;;;;;;;;;5075851;28;20404;-76
2022/06/08 07:00:51;;;;;;;4.40;2.23;;;;;;;;;;5074557;28;20729;-76
2022/06/08 07:03:17;;;;;;;3.90;2.50;;;;;;;;;;5075635;28;20378;-76
2022/06/08 07:05:43;;;;;;;3.80;2.10;;;;;;;;;;5075672;28;20493;-78
2022/06/08 07:08:09;;;;;;;3.00;1.67;;;;;;;;;;5075650;28;20432;-78
2022/06/08 07:10:39;;;;;;;8.50;1.43;;;;;;;;;;5075599;28;20435;-77
2022/06/08 07:13:05;;;;;;;6.43;1.60;;;;;;;;;;5075162;28;20408;-78
2022/06/08 07:15:31;;;;;;;1.70;1.50;;;;;;;;;;5075493;28;20436;-76
2022/06/08 07:17:57;;;;;;;2.37;1.50;;;;;;;;;;5075574;28;20425;-77
2022/06/08 07:20:23;;;;;;;5.07;2.03;;;;;;;;;;5075284;28;20398;-77
2022/06/08 07:22:50;;;;;;;3.27;1.70;;;;;;;;;;5075364;28;20738;-76
2022/06/08 07:25:17;;;;;;;3.57;1.67;;;;;;;;;;5075067;28;20445;-78
2022/06/08 07:27:44;;;;;;;3.77;1.63;;;;;;;;;;5075395;28;20763;-77
2022/06/08 07:30:10;;;;;;;2.80;1.80;;;;;;;;;;5074281;28;20955;-77
2022/06/08 07:32:36;;;;;;;8.63;1.80;;;;;;;;;;5075533;28;20416;-76
2022/06/08 07:35:04;;;;;;;4.43;1.97;;;;;;;;;;5073347;28;20531;-77
2022/06/08 07:37:30;;;;;;;2.50;1.50;;;;;;;;;;5075106;28;20398;-76
2022/06/08 07:39:56;;;;;;;3.03;1.87;;;;;;;;;;5073875;28;20902;-77
2022/06/08 07:42:22;;;;;;;3.77;1.70;;;;;;;;;;5075090;28;20415;-77
2022/06/08 07:44:48;;;;;;;3.63;1.63;;;;;;;;;;5074971;28;20445;-76
2022/06/08 07:47:15;;;;;;;3.33;1.60;;;;;;;;;;5074909;28;20454;-76
2022/06/08 07:49:41;;;;;;;3.07;1.80;;;;;;;;;;5074833;28;20413;-77
2022/06/08 07:52:12;;;;;;;1.93;1.40;;;;;;;;;;5075097;28;20473;-76
2022/06/08 07:54:38;;;;;;;4.00;1.60;;;;;;;;;;5072972;28;21211;-78
2022/06/08 07:57:05;;;;;;;6.40;1.80;;;;;;;;;;5075107;28;20417;-76
2022/06/08 07:59:32;;;;;;;2.10;1.50;;;;;;;;;;5074617;28;20394;-75
2022/06/08 08:01:59;;;;;;;2.60;1.20;;;;;;;;;;5074762;28;20411;-76
2022/06/08 08:04:25;;;;;;;4.27;1.80;;;;;;;;;;5074214;28;20946;-76
2022/06/08 08:06:51;;;;;;;1.97;1.60;;;;;;;;;;5074583;28;20385;-76
2022/06/08 08:09:18;;;;;;;2.37;1.30;;;;;;;;;;5074580;28;20412;-76
2022/06/08 08:11:49;;;;;;;2.40;1.63;;;;;;;;;;5074620;28;20423;-77
2022/06/08 08:14:15;;;;;;;5.10;1.80;;;;;;;;;;5074159;28;20451;-76
2022/06/08 08:16:43;;;;;;;4.40;1.43;;;;;;;;;;5074269;28;20510;-76
2022/06/08 08:19:09;;;;;;;3.10;1.50;;;;;;;;;;5074335;28;20522;-77
2022/06/08 08:21:36;;;;;;;2.83;1.43;;;;;;;;;;5074369;28;20443;-77
2022/06/08 08:24:02;;;;;;;2.53;1.40;;;;;;;;;;5073703;28;20486;-77
2022/06/08 08:26:28;;;;;;;1.90;1.30;;;;;;;;;;5074184;28;20408;-78
2022/06/08 08:28:55;;;;;;;2.97;1.67;;;;;;;;;;5074042;28;20382;-77
2022/06/08 08:31:21;;;;;;;2.83;1.37;;;;;;;;;;5074058;28;20394;-77
2022/06/08 08:33:47;;;;;;;1.67;1.30;;;;;;;;;;5073827;28;20404;-76
2022/06/08 08:36:13;;;;;;;2.80;1.40;;;;;;;;;;5073923;28;20424;-77
2022/06/08 08:38:40;;;;;;;6.03;1.20;;;;;;;;;;5073976;28;20445;-75
2022/06/08 08:42:20;;;;;;;2.40;1.30;;;;;;;;;;5073831;28;20411;-76
2022/06/08 08:43:52;;;;;;;2.57;1.13;;;;;;;;;;5073309;28;20860;-76
2022/06/08 08:46:44;;;;;;;2.70;1.70;;;;;;;;;;5073533;28;20405;-77
2022/06/08 08:49:19;;;;;;;2.37;1.07;;;;;;;;;;5071623;28;20436;-76
2022/06/08 08:51:50;;;;;;;2.83;1.10;;;;;;;;;;5074005;28;20395;-75
2022/06/08 08:54:16;;;;;;;1.90;1.17;;;;;;;;;;5073340;28;20897;-76
2022/06/08 08:56:42;;;;;;;2.30;1.47;;;;;;;;;;5073724;28;20449;-78
2022/06/08 08:59:15;;;;;;;4.17;1.50;;;;;;;;;;5073391;28;20407;-76
2022/06/08 09:01:42;;;;;;;2.20;1.20;;;;;;;;;;5073446;28;20413;-76
2022/06/08 09:04:15;;;;;;;1.93;1.30;;;;;;;;;;5073087;28;20983;-77
2022/06/08 09:06:41;;;;;;;6.40;1.50;;;;;;;;;;5073515;28;20404;-78
2022/06/08 09:09:13;;;;;;;2.97;1.40;;;;;;;;;;5073245;28;20730;-77
2022/06/08 09:11:44;;;;;;;3.43;1.40;;;;;;;;;;5072028;28;20416;-77
2022/06/08 09:14:19;;;;;;;2.70;1.30;;;;;;;;;;5072925;28;20412;-78
2022/06/08 09:16:48;;;;;;;2.20;1.23;;;;;;;;;;5073320;28;20876;-75
2022/06/08 09:19:36;;;;;;;4.27;1.90;;;;;;;;;;5073006;28;20456;-75
2022/06/08 09:22:06;;;;;;;3.23;1.40;;;;;;;;;;5073155;28;20523;-77
2022/06/08 09:24:35;;;;;;;3.60;1.50;;;;;;;;;;5072632;28;20459;-77
2022/06/08 09:27:16;;;;;;;3.63;1.60;;;;;;;;;;5071599;28;20411;-74
2022/06/08 09:29:55;;;;;;;2.60;1.40;;;;;;;;;;5072904;28;20404;-78
2022/06/08 09:32:29;;;;;;;2.23;1.50;;;;;;;;;;5072992;28;20454;-78
2022/06/08 09:34:57;;;;;;;4.03;1.30;;;;;;;;;;5071329;28;20494;-78
2022/06/08 09:37:25;;;;;;;4.80;2.00;;;;;;;;;;5073048;28;20526;-77
2022/06/08 09:39:52;;;;;;;2.67;1.43;;;;;;;;;;5072994;28;20411;-77
2022/06/08 09:42:24;;;;;;;4.53;1.53;;;;;;;;;;5072997;28;20971;-79
2022/06/08 09:45:14;;;;;;;4.33;1.67;;;;;;;;;;5074381;28;20459;-78
2022/06/08 09:53:36;;;;;;;4.43;1.53;;;;;;;;;;5072720;28;20386;-78
2022/06/08 09:56:05;;;;;;;4.20;2.20;;;;;;;;;;5072977;28;20842;-77
2022/06/08 09:58:38;;;;;;;2.70;1.27;;;;;;;;;;5072426;28;20449;-77
2022/06/08 10:01:25;;;;;;;6.83;2.03;;;;;;;;;;5073414;28;20407;-80
2022/06/08 10:04:02;;;;;;;3.87;1.20;;;;;;;;;;5072814;28;20809;-77
2022/06/08 10:06:28;;;;;;;4.70;1.47;;;;;;;;;;5073157;28;20490;-76
2022/06/08 10:09:15;;;;;;;5.20;1.50;;;;;;;;;;5072785;28;20393;-78
2022/06/08 10:11:44;;;;;;;14.90;2.33;;;;;;;;;;5072470;28;20857;-78
2022/06/08 10:14:13;;;;;;;5.03;1.53;;;;;;;;;;5072161;28;20498;-77
2022/06/08 10:16:40;;;;;;;9.77;2.33;;;;;;;;;;5072507;28;20388;-78
2022/06/08 10:19:11;;;;;;;6.07;1.80;;;;;;;;;;5072412;28;20411;-80
2022/06/08 10:21:41;;;;;;;5.80;1.73;;;;;;;;;;5072381;28;20382;-79
2022/06/08 10:24:27;;;;;;;6.67;1.70;;;;;;;;;;5071936;28;20455;-79
2022/06/08 10:27:05;;;;;;;8.70;1.70;;;;;;;;;;5072323;28;20915;-78
2022/06/08 10:29:37;;;;;;;4.70;1.50;;;;;;;;;;5075863;28;20885;-77
2022/06/08 10:32:24;;;;;;;4.00;2.07;;;;;;;;;;5081016;28;20422;-79
2022/06/08 10:34:54;;;;;;;5.10;1.67;;;;;;;;;;5083400;28;20428;-79
2022/06/08 10:37:28;;;;;;;5.77;1.70;;;;;;;;;;5079739;28;20493;-80
2022/06/08 10:39:54;;;;;;;14.03;1.80;;;;;;;;;;5081497;28;20485;-77
2022/06/08 10:42:40;;;;;;;6.43;1.83;;;;;;;;;;5081543;28;20397;-75
2022/06/08 10:45:22;;;;;;;3.50;1.30;;;;;;;;;;5081363;28;20470;-76
2022/06/08 10:47:58;;;;;;;5.40;2.00;;;;;;;;;;5080527;28;20884;-77
2022/06/08 10:50:32;;;;;;;2.50;1.20;;;;;;;;;;5078849;28;20417;-77
2022/06/08 10:55:44;;;;;;;3.70;1.60;;;;;;;;;;5081440;28;20805;-78
2022/06/08 10:58:12;;;;;;;5.07;1.40;;;;;;;;;;5081293;28;20426;-75
2022/06/08 11:00:52;;;;;;;8.43;2.17;;;;;;;;;;5082709;28;20434;-78
2022/06/08 11:03:50;;;;;;;3.73;1.80;;;;;;;;;;5082843;28;20490;-77
2022/06/08 11:06:35;;;;;;;4.10;1.90;;;;;;;;;;5037674;28;20417;-78
2022/06/08 11:09:03;;;;;;;6.33;2.03;;;;;;;;;;5086884;28;20409;-81
2022/06/08 11:11:45;;;;;;;10.90;3.33;;;;;;;;;;5095798;28;20381;-76
2022/06/08 11:14:28;;;;;;;7.73;2.07;;;;;;;;;;5095371;28;20921;-79
2022/06/08 11:16:56;;;;;;;4.47;2.20;;;;;;;;;;5095858;28;20437;-78
2022/06/08 11:19:23;;;;;;;3.30;1.70;;;;;;;;;;5095679;28;20403;-76
2022/06/08 11:21:57;;;;;;;3.60;1.67;;;;;;;;;;5095734;28;20442;-80
2022/06/08 11:24:30;;;;;;;5.50;2.10;;;;;;;;;;5095127;28;20463;-81
2022/06/08 11:27:12;;;;;;;6.60;3.27;;;;;;;;;;5095765;28;20510;-79
2022/06/08 11:29:46;;;;;;;4.10;1.77;;;;;;;;;;5095485;28;20816;-77
2022/06/08 11:32:25;;;;;;;5.70;2.23;;;;;;;;;;5095511;28;20479;-79
2022/06/08 11:35:11;;;;;;;5.50;2.13;;;;;;;;;;5095168;28;20430;-80
2022/06/08 11:37:37;;;;;;;6.00;2.00;;;;;;;;;;5081847;28;20396;-79
2022/06/08 11:40:30;;;;;;;6.30;1.77;;;;;;;;;;5085126;28;20412;-80
2022/06/08 11:43:00;;;;;;;3.30;2.00;;;;;;;;;;5073221;28;20423;-80
2022/06/08 11:45:36;;;;;;;3.57;1.70;;;;;;;;;;5074929;28;20569;-78
2022/06/08 11:48:08;;;;;;;5.77;1.77;;;;;;;;;;5075152;28;20388;-78
2022/06/08 11:50:41;;;;;;;5.50;1.77;;;;;;;;;;5074944;28;20416;-82
2022/06/08 11:53:14;;;;;;;5.67;2.00;;;;;;;;;;5074616;28;20443;-81
2022/06/08 11:55:49;;;;;;;8.83;2.83;;;;;;;;;;5074651;28;20526;-80
2022/06/08 11:58:17;;;;;;;3.53;2.17;;;;;;;;;;5083173;28;20400;-80
2022/06/08 12:00:44;;;;;;;4.87;2.10;;;;;;;;;;5094818;28;20435;-79
2022/06/08 12:03:16;;;;;;;5.90;2.40;;;;;;;;;;5094705;28;20381;-79
2022/06/08 12:05:42;;;;;;;7.20;2.93;;;;;;;;;;5094805;28;20473;-77
2022/06/08 12:08:18;;;;;;;5.77;2.50;;;;;;;;;;5094874;28;20411;-82
2022/06/08 12:10:44;;;;;;;7.60;2.43;;;;;;;;;;5094768;28;20559;-80
2022/06/08 12:13:18;;;;;;;5.53;2.00;;;;;;;;;;5094465;28;20480;-79
2022/06/08 12:15:48;;;;;;;3.20;2.30;;;;;;;;;;5094582;28;20903;-80
2022/06/08 12:18:26;;;;;;;4.33;1.93;;;;;;;;;;5094644;28;20418;-79
2022/06/08 12:21:07;;;;;;;4.13;2.40;;;;;;;;;;5093664;28;20411;-80
2022/06/08 12:23:36;;;;;;;7.13;2.40;;;;;;;;;;5093987;28;20410;-79
2022/06/08 12:26:03;;;;;;;2.33;1.70;;;;;;;;;;5094248;28;20458;-76
2022/06/08 12:28:30;;;;;;;4.03;2.50;;;;;;;;;;5094289;28;20906;-76
2022/06/08 12:30:57;;;;;;;6.50;2.60;;;;;;;;;;5094023;28;20430;-77
2022/06/08 12:33:29;;;;;;;6.10;2.53;;;;;;;;;;5094133;28;20548;-77
2022/06/08 12:36:01;;;;;;;8.50;2.30;;;;;;;;;;5094151;28;20409;-79
2022/06/08 12:38:28;;;;;;;3.33;1.90;;;;;;;;;;5094303;28;20492;-79
2022/06/08 12:41:01;;;;;;;6.83;2.33;;;;;;;;;;5093967;28;20467;-77
2022/06/08 12:43:47;;;;;;;6.57;2.33;;;;;;;;;;5093838;28;20770;-78
2022/06/08 12:46:13;;;;;;;4.20;2.17;;;;;;;;;;5093988;28;20424;-79
2022/06/08 12:48:39;;;;;;;8.20;2.17;;;;;;;;;;5093904;28;20381;-78
2022/06/08 12:51:20;;;;;;;3.40;2.40;;;;;;;;;;5093823;28;20411;-79
2022/06/08 12:53:46;;;;;;;5.67;2.10;;;;;;;;;;5093490;28;20410;-77
2022/06/08 12:56:12;;;;;;;4.40;2.00;;;;;;;;;;5092539;28;20397;-78
2022/06/08 12:58:38;;;;;;;8.07;2.53;;;;;;;;;;5092441;28;20410;-77
2022/06/08 13:01:04;;;;;;;3.23;2.00;;;;;;;;;;5093302;28;20464;-79
2022/06/08 13:03:30;;;;;;;4.47;2.23;;;;;;;;;;5092214;28;20421;-77
2022/06/08 13:05:57;;;;;;;4.23;2.10;;;;;;;;;;5093460;28;20490;-76
2022/06/08 13:08:25;;;;;;;5.83;2.50;;;;;;;;;;5093573;28;20442;-80
2022/06/08 13:10:52;;;;;;;4.70;2.90;;;;;;;;;;5093351;28;20383;-76
2022/06/08 13:13:21;;;;;;;7.83;2.33;;;;;;;;;;5093147;28;20450;-76
2022/06/08 13:15:47;;;;;;;4.23;2.30;;;;;;;;;;5093390;28;20430;-79
2022/06/08 13:18:18;;;;;;;4.67;3.07;;;;;;;;;;5093499;28;20425;-80
2022/06/08 13:20:45;;;;;;;5.57;2.90;;;;;;;;;;5093426;28;20500;-78
2022/06/08 13:23:11;;;;;;;6.20;2.70;;;;;;;;;;5092824;28;20410;-76
2022/06/08 13:25:37;;;;;;;6.53;2.93;;;;;;;;;;5091668;28;20470;-77
2022/06/08 13:28:20;;;;;;;6.73;2.60;;;;;;;;;;5093172;28;20864;-79
2022/06/08 13:30:47;;;;;;;3.50;2.20;;;;;;;;;;5092974;28;20476;-80
2022/06/08 13:35:59;;;;;;;4.60;2.40;;;;;;;;;;5092063;28;20433;-76
2022/06/08 13:38:25;;;;;;;2.20;1.90;;;;;;;;;;5093049;28;20400;-78
2022/06/08 13:40:51;;;;;;;9.33;2.17;;;;;;;;;;5093155;28;20771;-77
2022/06/08 13:43:18;;;;;;;5.10;2.10;;;;;;;;;;5092607;28;20381;-78
2022/06/08 13:45:44;;;;;;;5.30;2.20;;;;;;;;;;5092976;28;20485;-78
2022/06/08 13:48:18;;;;;;;5.43;2.40;;;;;;;;;;5093022;28;20418;-79
2022/06/08 13:50:45;;;;;;;7.47;2.33;;;;;;;;;;5092802;28;20748;-76
2022/06/08 13:53:19;;;;;;;3.70;2.10;;;;;;;;;;5092684;28;20441;-79
2022/06/08 13:55:47;;;;;;;3.70;2.87;;;;;;;;;;5092920;28;20431;-79
2022/06/08 13:58:14;;;;;;;7.10;2.83;;;;;;;;;;5092893;28;20436;-77
2022/06/08 14:00:53;;;;;;;5.47;2.83;;;;;;;;;;5082985;28;20976;-77
2022/06/08 14:03:21;;;;;;;5.43;2.80;;;;;;;;;;5072173;28;20411;-78
2022/06/08 14:14:06;;;;;;;5.93;3.00;;;;;;;;;;5085050;28;20442;-77
2022/06/08 14:16:32;;;;;;;6.10;3.00;;;;;;;;;;5077229;28;20427;-78
2022/06/08 14:19:01;;;;;;;9.87;2.40;;;;;;;;;;5079396;28;20414;-79
2022/06/08 14:21:27;;;;;;;7.63;3.20;;;;;;;;;;5086935;28;20405;-79
2022/06/08 14:23:54;;;;;;;3.73;2.70;;;;;;;;;;5084432;28;21000;-75
2022/06/08 14:26:22;;;;;;;6.97;3.17;;;;;;;;;;5078423;28;20406;-75
2022/06/08 14:28:51;;;;;;;3.77;2.50;;;;;;;;;;5074098;28;20477;-75
2022/06/08 14:31:32;;;;;;;8.30;2.90;;;;;;;;;;5084958;28;20431;-76
2022/06/08 14:33:58;;;;;;;4.07;2.93;;;;;;;;;;5075100;28;20764;-77
2022/06/08 14:36:25;;;;;;;5.37;2.40;;;;;;;;;;5075802;28;20414;-76
2022/06/08 14:38:52;;;;;;;5.20;2.77;;;;;;;;;;5077974;28;20775;-75
2022/06/08 14:41:18;;;;;;;3.47;2.90;;;;;;;;;;5075301;28;20514;-77
2022/06/08 14:43:44;;;;;;;8.27;2.40;;;;;;;;;;5083106;28;20415;-77
2022/06/08 14:46:13;;;;;;;7.43;2.90;;;;;;;;;;5078184;28;20442;-76
2022/06/08 14:48:50;;;;;;;7.20;3.20;;;;;;;;;;5086635;28;20487;-77
2022/06/08 14:51:18;;;;;;;5.13;2.80;;;;;;;;;;5082031;28;20806;-76
2022/06/08 14:53:45;;;;;;;6.33;2.87;;;;;;;;;;5075316;28;20465;-77
2022/06/08 14:56:25;;;;;;;10.30;2.93;;;;;;;;;;5075602;28;20424;-78
2022/06/08 14:58:56;;;;;;;4.73;2.83;;;;;;;;;;5075775;28;20447;-77
2022/06/08 15:01:24;;;;;;;4.00;2.67;;;;;;;;;;5078420;28;20397;-76
2022/06/08 15:03:51;;;;;;;5.83;3.50;;;;;;;;;;5095473;28;20498;-77
2022/06/08 15:06:17;;;;;;;6.63;3.00;;;;;;;;;;5095973;28;20782;-76
2022/06/08 15:08:46;;;;;;;8.13;2.60;;;;;;;;;;5094291;28;20455;-77
2022/06/08 15:14:00;;;;;;;4.67;2.70;;;;;;;;;;5095408;28;20826;-76
2022/06/08 15:16:26;;;;;;;2.67;2.13;;;;;;;;;;5094379;28;20903;-76
2022/06/08 15:18:52;;;;;;;5.47;2.30;;;;;;;;;;5079007;28;20424;-76
2022/06/08 15:21:18;;;;;;;2.13;1.90;;;;;;;;;;5095625;28;20419;-75
2022/06/08 15:23:44;;;;;;;3.20;2.10;;;;;;;;;;5095142;28;20407;-76